createdAt,value
2019-05-10T00:01:55.322Z,16.50
2019-05-10T00:04:40.428Z,16.77
2019-05-10T00:07:25.912Z,15.90
2019-05-10T00:09:52.312Z,16.90
2019-05-10T00:12:20.690Z,14.93
2019-05-10T00:14:49.203Z,12.15
2019-05-10T00:17:17.880Z,13.78
2019-05-10T00:19:44.833Z,14.20
2019-05-10T00:22:11.740Z,14.80
2019-05-10T00:24:38.603Z,12.90
2019-05-10T00:27:05.248Z,12.90
2019-05-10T00:29:32.046Z,12.75
2019-05-10T00:31:58.720Z,13.13
2019-05-10T00:34:25.317Z,13.03
2019-05-10T00:36:51.895Z,12.43
2019-05-10T00:39:19.569Z,14.68
2019-05-10T00:41:46.412Z,13.55
2019-05-10T00:44:13.177Z,10.28
2019-05-10T00:46:39.877Z,11.00
2019-05-10T00:49:06.624Z,12.85
2019-05-10T00:51:33.151Z,10.88
2019-05-10T00:53:59.713Z,13.43
2019-05-10T00:56:28.063Z,12.65
2019-05-10T00:58:54.709Z,11.78
2019-05-10T01:01:21.864Z,10.85
2019-05-10T01:03:48.600Z,14.13
2019-05-10T01:06:15.322Z,13.55
2019-05-10T01:08:42.070Z,12.63
2019-05-10T01:11:08.923Z,11.15
2019-05-10T01:13:35.370Z,11.03
2019-05-10T01:16:02.022Z,12.25
2019-05-10T01:18:28.561Z,13.30
2019-05-10T01:20:55.507Z,11.40
2019-05-10T01:23:22.218Z,12.10
2019-05-10T01:25:48.962Z,14.05
2019-05-10T01:28:15.509Z,11.25
2019-05-10T01:30:42.306Z,10.98
2019-05-10T01:33:09.142Z,9.33
2019-05-10T01:35:35.802Z,11.10
2019-05-10T01:38:02.614Z,10.90
2019-05-10T01:40:29.162Z,11.48
2019-05-10T01:42:55.922Z,9.35
2019-05-10T01:45:22.667Z,8.98
2019-05-10T01:47:49.183Z,9.85
2019-05-10T01:50:15.825Z,12.33
2019-05-10T01:52:42.343Z,8.30
2019-05-10T01:55:08.988Z,9.28
2019-05-10T01:57:35.865Z,8.10
2019-05-10T02:00:06.117Z,11.18
2019-05-10T02:02:33.265Z,10.63
2019-05-10T02:04:59.917Z,10.43
2019-05-10T02:07:26.541Z,12.60
2019-05-10T02:09:53.165Z,13.55
2019-05-10T02:12:20.568Z,15.50
2019-05-10T02:14:47.207Z,14.78
2019-05-10T02:17:13.846Z,14.23
2019-05-10T02:19:40.383Z,17.82
2019-05-10T02:22:06.945Z,14.90
2019-05-10T02:24:33.426Z,14.23
2019-05-10T02:27:00.050Z,14.10
2019-05-10T02:29:26.564Z,14.23
2019-05-10T02:31:53.166Z,17.50
2019-05-10T02:34:19.654Z,36.83
2019-05-10T02:36:46.186Z,19.50
2019-05-10T02:39:12.854Z,22.35
2019-05-10T02:41:39.579Z,16.65
2019-05-10T02:44:06.344Z,15.20
2019-05-10T02:46:33.106Z,17.55
2019-05-10T02:48:59.947Z,14.87
2019-05-10T02:51:27.190Z,12.75
2019-05-10T02:53:53.866Z,14.38
2019-05-10T02:56:30.215Z,15.03
2019-05-10T02:58:53.842Z,15.35
2019-05-10T03:01:25.949Z,13.72
2019-05-10T03:03:55.758Z,14.78
2019-05-10T03:06:25.141Z,14.50
2019-05-10T03:08:52.937Z,16.65
2019-05-10T03:11:19.678Z,13.13
2019-05-10T03:13:49.915Z,15.63
2019-05-10T03:16:22.909Z,13.43
2019-05-10T03:18:52.752Z,14.75
2019-05-10T03:21:22.327Z,13.65
2019-05-10T03:23:49.734Z,11.63
2019-05-10T03:26:16.605Z,11.55
2019-05-10T03:28:43.805Z,12.90
2019-05-10T03:31:11.459Z,12.37
2019-05-10T03:33:37.986Z,15.23
2019-05-10T03:36:04.664Z,11.30
2019-05-10T03:38:31.372Z,11.95
2019-05-10T03:40:58.156Z,14.47
2019-05-10T03:43:24.716Z,11.90
2019-05-10T03:45:51.301Z,17.05
2019-05-10T03:48:18.142Z,16.07
2019-05-10T03:50:44.734Z,15.40
2019-05-10T03:53:11.387Z,14.78
2019-05-10T03:55:38.031Z,13.90
2019-05-10T03:58:05.054Z,15.13
2019-05-10T04:00:31.953Z,17.27
2019-05-10T04:02:58.707Z,15.48
2019-05-10T04:05:25.158Z,16.45
2019-05-10T04:07:52.030Z,12.55
2019-05-10T04:10:20.970Z,14.33
2019-05-10T04:12:47.498Z,14.40
2019-05-10T04:15:14.398Z,17.23
2019-05-10T04:17:41.130Z,16.20
2019-05-10T04:20:08.609Z,15.93
2019-05-10T04:22:35.253Z,12.30
2019-05-10T04:25:03.383Z,12.98
2019-05-10T04:27:32.861Z,13.70
2019-05-10T04:29:58.709Z,13.38
2019-05-10T04:32:25.637Z,14.00
2019-05-10T04:34:52.300Z,13.10
2019-05-10T04:37:18.856Z,13.43
2019-05-10T04:39:45.711Z,14.90
2019-05-10T04:42:12.302Z,16.32
2019-05-10T04:44:38.922Z,16.52
2019-05-10T04:47:05.681Z,16.82
2019-05-10T04:49:32.456Z,18.48
2019-05-10T04:51:59.160Z,16.85
2019-05-10T04:54:25.874Z,15.10
2019-05-10T04:56:52.555Z,15.00
2019-05-10T04:59:19.472Z,15.80
2019-05-10T05:01:46.172Z,14.70
2019-05-10T05:04:12.879Z,13.30
2019-05-10T05:06:39.374Z,14.43
2019-05-10T05:09:06.145Z,15.60
2019-05-10T05:11:32.820Z,16.87
2019-05-10T05:13:59.543Z,37.13
2019-05-10T05:16:26.267Z,31.37
2019-05-10T05:18:53.001Z,23.62
2019-05-10T05:21:22.461Z,19.48
2019-05-10T05:23:48.911Z,14.15
2019-05-10T05:26:15.546Z,14.20
2019-05-10T05:28:42.289Z,14.33
2019-05-10T05:31:09.037Z,13.03
2019-05-10T05:33:35.649Z,14.25
2019-05-10T05:36:02.639Z,12.33
2019-05-10T05:38:29.525Z,13.70
2019-05-10T05:40:56.105Z,14.40
2019-05-10T05:43:22.766Z,22.77
2019-05-10T05:45:49.422Z,10.60
2019-05-10T05:48:21.184Z,10.35
2019-05-10T05:50:44.681Z,11.03
2019-05-10T05:53:11.449Z,8.63
2019-05-10T05:55:38.064Z,7.30
2019-05-10T05:58:07.053Z,11.45
2019-05-10T06:00:37.741Z,13.85
2019-05-10T06:03:02.010Z,7.53
2019-05-10T06:05:34.311Z,8.15
2019-05-10T06:07:57.163Z,11.48
2019-05-10T06:10:23.688Z,7.90
2019-05-10T06:12:52.716Z,13.13
2019-05-10T06:15:23.009Z,10.98
2019-05-10T06:17:56.170Z,8.00
2019-05-10T06:20:16.148Z,9.78
2019-05-10T06:22:43.953Z,13.00
2019-05-10T06:25:11.989Z,9.05
2019-05-10T06:27:40.861Z,15.78
2019-05-10T06:30:08.116Z,13.62
2019-05-10T06:32:34.751Z,12.70
2019-05-10T06:35:01.675Z,11.00
2019-05-10T06:37:31.308Z,9.65
2019-05-10T06:39:57.214Z,8.90
2019-05-10T06:42:28.879Z,9.10
2019-05-10T06:44:52.180Z,12.75
2019-05-10T06:47:21.819Z,13.10
2019-05-10T06:49:52.042Z,19.80
2019-05-10T06:52:16.707Z,9.08
2019-05-10T06:54:43.376Z,8.25
2019-05-10T06:57:11.148Z,9.45
2019-05-10T06:59:38.775Z,15.65
2019-05-10T07:02:05.576Z,10.85
2019-05-10T07:04:37.818Z,5.55
2019-05-10T07:07:00.995Z,5.67
2019-05-10T07:09:27.984Z,6.05
2019-05-10T07:11:54.603Z,9.08
2019-05-10T07:14:25.647Z,8.78
2019-05-10T07:16:56.418Z,11.55
2019-05-10T07:19:20.267Z,6.62
2019-05-10T07:21:51.022Z,10.93
2019-05-10T07:24:18.183Z,10.32
2019-05-10T07:26:44.274Z,5.58
2019-05-10T07:29:11.127Z,8.13
2019-05-10T07:31:38.066Z,6.17
2019-05-10T07:34:09.819Z,6.33
2019-05-10T07:36:35.398Z,4.80
2019-05-10T07:39:08.392Z,4.78
2019-05-10T07:41:34.192Z,5.58
2019-05-10T07:44:07.504Z,8.63
2019-05-10T07:46:31.359Z,12.70
2019-05-10T07:48:57.994Z,18.45
2019-05-10T07:51:28.856Z,12.28
2019-05-10T07:53:57.121Z,6.12
2019-05-10T07:56:22.055Z,7.67
2019-05-10T07:58:48.718Z,5.55
2019-05-10T08:01:15.404Z,8.28
2019-05-10T08:03:48.158Z,6.10
2019-05-10T08:06:10.602Z,7.35
2019-05-10T08:08:39.262Z,7.75
2019-05-10T08:11:08.442Z,5.62
2019-05-10T08:13:35.290Z,7.97
2019-05-10T08:16:05.530Z,8.30
2019-05-10T08:18:32.228Z,6.58
2019-05-10T08:21:02.439Z,8.98
2019-05-10T08:23:28.159Z,7.05
2019-05-10T08:25:55.180Z,14.45
2019-05-10T08:28:22.841Z,9.58
2019-05-10T08:30:53.655Z,9.80
2019-05-10T08:33:18.980Z,6.22
2019-05-10T08:35:46.538Z,20.30
2019-05-10T08:38:13.470Z,7.03
2019-05-10T08:40:42.547Z,25.12
2019-05-10T08:43:13.988Z,16.40
2019-05-10T08:45:44.084Z,7.75
2019-05-10T08:48:07.443Z,8.73
2019-05-10T08:50:48.802Z,13.55
2019-05-10T08:53:10.462Z,8.85
2019-05-10T08:55:32.065Z,7.40
2019-05-10T08:57:58.469Z,15.78
2019-05-10T09:00:41.590Z,15.20
2019-05-10T09:02:54.023Z,8.28
2019-05-10T09:05:28.609Z,7.67
2019-05-10T09:07:52.137Z,12.03
2019-05-10T09:10:18.892Z,9.65
2019-05-10T09:12:53.682Z,21.97
2019-05-10T09:15:14.710Z,31.17
2019-05-10T09:17:42.825Z,12.47
2019-05-10T09:20:11.955Z,7.92
2019-05-10T09:22:39.362Z,43.83
2019-05-10T09:25:07.552Z,11.88
2019-05-10T09:27:34.325Z,11.93
2019-05-10T09:30:02.919Z,12.15
2019-05-10T09:32:33.331Z,9.43
2019-05-10T09:35:06.911Z,28.50
2019-05-10T09:37:28.249Z,13.32
2019-05-10T09:40:05.567Z,21.20
2019-05-10T09:42:31.890Z,7.55
2019-05-10T09:44:53.916Z,41.02
2019-05-10T09:47:22.219Z,12.25
2019-05-10T09:49:54.199Z,11.10
2019-05-10T09:52:18.870Z,10.88
2019-05-10T09:54:49.199Z,9.00
2019-05-10T09:57:14.644Z,6.03
2019-05-10T09:59:41.477Z,4.78
2019-05-10T10:02:14.628Z,6.30
2019-05-10T10:04:37.265Z,7.75
2019-05-10T10:07:04.259Z,7.70
2019-05-10T10:09:37.355Z,10.38
2019-05-10T10:12:03.243Z,10.20
2019-05-10T10:14:38.179Z,8.20
2019-05-10T10:17:02.956Z,17.12
2019-05-10T10:19:27.845Z,11.80
2019-05-10T10:21:54.778Z,9.45
2019-05-10T10:24:21.454Z,6.22
2019-05-10T10:26:48.354Z,13.03
2019-05-10T10:29:17.321Z,7.42
2019-05-10T10:31:52.986Z,16.67
2019-05-10T10:34:12.816Z,13.53
2019-05-10T10:36:43.777Z,11.45
2019-05-10T10:39:08.275Z,7.80
2019-05-10T10:41:35.360Z,4.22
2019-05-10T10:44:02.057Z,8.43
2019-05-10T10:46:29.072Z,4.25
2019-05-10T10:48:55.904Z,5.62
2019-05-10T10:51:26.676Z,12.10
2019-05-10T10:53:54.512Z,7.55
2019-05-10T10:56:19.874Z,7.10
2019-05-10T10:58:49.733Z,9.68
2019-05-10T11:01:21.511Z,5.35
2019-05-10T11:03:48.897Z,8.13
2019-05-10T11:06:16.932Z,8.93
2019-05-10T11:08:44.991Z,6.12
2019-05-10T11:11:11.700Z,5.87
2019-05-10T11:13:43.786Z,4.45
2019-05-10T11:16:10.878Z,4.05
2019-05-10T11:18:35.054Z,3.50
2019-05-10T11:21:02.157Z,7.90
2019-05-10T11:23:34.003Z,3.22
2019-05-10T11:25:57.763Z,3.95
2019-05-10T11:28:24.261Z,2.95
2019-05-10T11:30:51.260Z,3.05
2019-05-10T11:41:42.158Z,3.12
2019-05-10T11:44:11.929Z,2.22
2019-05-10T11:46:37.601Z,3.95
2019-05-10T11:49:04.499Z,3.10
2019-05-10T11:51:31.693Z,4.12
2019-05-10T11:53:59.766Z,1.40
2019-05-10T11:56:27.739Z,2.52
2019-05-10T11:58:55.936Z,1.67
2019-05-10T12:01:22.672Z,8.60
2019-05-10T12:03:49.604Z,5.55
2019-05-10T12:06:16.557Z,1.67
2019-05-10T12:08:43.102Z,2.30
2019-05-10T12:11:27.196Z,4.75
2019-05-10T12:13:38.682Z,3.40
2019-05-10T12:16:06.605Z,6.00
2019-05-10T12:18:36.069Z,4.30
2019-05-10T12:21:09.329Z,7.42
2019-05-10T12:23:31.691Z,3.37
2019-05-10T12:27:12.999Z,3.58
2019-05-10T12:28:29.012Z,8.40
2019-05-10T12:30:55.813Z,3.42
2019-05-10T12:33:25.905Z,7.00
2019-05-10T12:35:51.301Z,3.30
2019-05-10T12:38:18.312Z,4.60
2019-05-10T12:40:46.472Z,1.92
2019-05-10T12:43:13.139Z,8.43
2019-05-10T12:45:41.798Z,11.83
2019-05-10T12:48:08.116Z,4.08
2019-05-10T12:50:34.749Z,5.08
2019-05-10T12:53:08.365Z,7.60
2019-05-10T12:55:30.177Z,4.62
2019-05-10T12:57:56.952Z,7.10
2019-05-10T13:00:23.658Z,6.80
2019-05-10T13:02:52.004Z,20.30
2019-05-10T13:05:18.865Z,5.15
2019-05-10T13:07:45.679Z,4.08
2019-05-10T13:10:12.691Z,4.87
2019-05-10T13:12:44.295Z,4.42
2019-05-10T13:15:08.906Z,4.62
2019-05-10T13:17:35.484Z,8.83
2019-05-10T13:20:05.852Z,3.62
2019-05-10T13:22:37.224Z,5.65
2019-05-10T13:25:01.068Z,4.60
2019-05-10T13:27:27.934Z,5.37
2019-05-10T13:29:54.577Z,3.50
2019-05-10T13:32:22.405Z,9.85
2019-05-10T13:34:49.482Z,4.97
2019-05-10T13:37:23.289Z,3.22
2019-05-10T13:39:46.418Z,7.55
2019-05-10T13:42:13.013Z,1.45
2019-05-10T13:44:43.021Z,4.12
2019-05-10T13:47:08.608Z,6.67
2019-05-10T13:49:35.508Z,0.40
2019-05-10T13:52:02.438Z,5.55
2019-05-10T13:54:31.292Z,3.67
2019-05-10T13:56:58.115Z,8.28
2019-05-10T13:59:25.092Z,10.45
2019-05-10T14:01:52.022Z,11.90
2019-05-10T14:04:18.695Z,23.65
2019-05-10T14:06:45.356Z,7.60
2019-05-10T14:09:11.875Z,4.33
2019-05-10T14:11:40.500Z,7.67
2019-05-10T14:14:07.813Z,2.12
2019-05-10T14:16:34.362Z,2.10
2019-05-10T14:19:00.897Z,2.67
2019-05-10T14:21:27.496Z,1.30
2019-05-10T14:23:56.808Z,2.08
2019-05-10T14:26:24.128Z,3.65
2019-05-10T14:28:53.117Z,8.83
2019-05-10T14:31:20.108Z,3.95
2019-05-10T14:33:49.767Z,6.85
2019-05-10T14:36:15.008Z,2.65
2019-05-10T14:38:41.580Z,4.00
2019-05-10T14:41:10.711Z,5.10
2019-05-10T14:43:37.135Z,6.90
2019-05-10T14:46:03.939Z,4.22
2019-05-10T14:48:34.765Z,4.40
2019-05-10T14:51:02.910Z,5.25
2019-05-10T14:53:28.493Z,5.67
2019-05-10T14:55:55.898Z,4.15
2019-05-10T14:58:23.447Z,3.67
2019-05-10T15:00:50.393Z,5.12
2019-05-10T15:03:16.959Z,7.50
2019-05-10T15:05:43.557Z,2.87
2019-05-10T15:08:10.719Z,2.47
2019-05-10T15:10:39.374Z,5.20
2019-05-10T15:13:05.963Z,3.67
2019-05-10T15:15:37.324Z,3.70
2019-05-10T15:18:03.425Z,8.13
2019-05-10T15:20:30.235Z,5.12
2019-05-10T15:22:57.115Z,2.55
2019-05-10T15:25:23.666Z,4.17
2019-05-10T15:27:54.674Z,3.10
2019-05-10T15:30:19.487Z,5.45
2019-05-10T15:32:47.898Z,5.40
2019-05-10T15:35:14.629Z,9.40
2019-05-10T15:37:46.323Z,7.12
2019-05-10T15:40:13.211Z,8.85
2019-05-10T15:42:39.909Z,5.72
2019-05-10T15:45:12.125Z,4.12
2019-05-10T15:47:50.101Z,4.25
2019-05-10T15:50:06.091Z,3.98
2019-05-10T15:52:32.811Z,3.42
2019-05-10T15:54:59.794Z,13.15
2019-05-10T15:57:26.292Z,5.00
2019-05-10T15:59:56.453Z,2.77
2019-05-10T16:02:21.715Z,5.15
2019-05-10T16:04:48.401Z,7.55
2019-05-10T16:07:16.617Z,11.45
2019-05-10T16:09:44.543Z,6.37
2019-05-10T16:12:11.369Z,5.50
2019-05-10T16:14:39.703Z,14.55
2019-05-10T16:17:10.266Z,13.25
2019-05-10T16:19:35.700Z,7.90
2019-05-10T16:22:05.747Z,4.45
2019-05-10T16:24:32.341Z,7.00
2019-05-10T16:27:01.849Z,3.98
2019-05-10T16:29:28.534Z,5.58
2019-05-10T16:31:55.040Z,7.17
2019-05-10T16:34:26.431Z,9.90
2019-05-10T16:36:50.451Z,11.55
2019-05-10T16:39:17.211Z,5.00
2019-05-10T16:41:44.046Z,4.80
2019-05-10T16:44:10.648Z,6.83
2019-05-10T16:46:37.449Z,8.25
2019-05-10T16:49:10.151Z,7.15
2019-05-10T16:51:33.171Z,5.95
2019-05-10T16:53:59.763Z,8.58
2019-05-10T16:56:28.171Z,9.18
2019-05-10T16:58:55.082Z,12.95
2019-05-10T17:01:27.527Z,11.08
2019-05-10T17:03:59.860Z,6.95
2019-05-10T17:06:21.115Z,8.93
2019-05-10T17:08:47.794Z,9.70
2019-05-10T17:11:14.494Z,17.00
2019-05-10T17:13:43.096Z,8.93
2019-05-10T17:16:11.551Z,9.43
2019-05-10T17:18:38.801Z,8.10
2019-05-10T17:21:05.631Z,13.40
2019-05-10T17:23:32.464Z,7.92
2019-05-10T17:26:00.515Z,14.65
2019-05-10T17:28:29.586Z,7.90
2019-05-10T17:30:59.820Z,12.53
2019-05-10T17:33:25.827Z,10.65
2019-05-10T17:36:07.208Z,11.85
2019-05-10T17:38:21.044Z,9.23
2019-05-10T17:40:50.028Z,13.83
2019-05-10T17:43:20.591Z,10.20
2019-05-10T17:45:45.629Z,9.83
2019-05-10T17:48:12.182Z,7.83
2019-05-10T17:50:38.732Z,12.73
2019-05-10T17:53:05.323Z,9.98
2019-05-10T17:55:31.947Z,10.72
2019-05-10T17:57:58.727Z,11.53
2019-05-10T18:00:25.843Z,13.85
2019-05-10T18:02:52.530Z,9.58
2019-05-10T18:05:19.359Z,12.55
2019-05-10T18:07:46.462Z,13.50
2019-05-10T18:10:13.311Z,9.53
2019-05-10T18:12:40.682Z,11.85
2019-05-10T18:15:09.259Z,12.15
2019-05-10T18:17:36.085Z,15.58
2019-05-10T18:20:05.646Z,14.13
2019-05-10T18:22:42.242Z,14.43
2019-05-10T18:25:01.857Z,10.50
2019-05-10T18:27:29.882Z,10.55
2019-05-10T18:29:56.713Z,11.18
2019-05-10T18:32:23.292Z,13.20
2019-05-10T18:34:50.065Z,12.33
2019-05-10T18:37:21.834Z,11.12
2019-05-10T18:39:47.228Z,9.70
2019-05-10T18:42:18.765Z,10.13
2019-05-10T18:44:45.817Z,8.33
2019-05-10T18:47:13.021Z,10.25
2019-05-10T18:49:39.868Z,9.85
2019-05-10T18:52:06.752Z,10.58
2019-05-10T18:54:33.705Z,12.78
2019-05-10T18:57:04.791Z,12.18
2019-05-10T18:59:31.610Z,10.18
2019-05-10T19:02:00.566Z,12.35
2019-05-10T19:04:29.932Z,8.95
2019-05-10T19:07:09.334Z,11.28
2019-05-10T19:09:25.443Z,8.43
2019-05-10T19:11:52.259Z,12.90
2019-05-10T19:14:23.895Z,15.25
2019-05-10T19:16:47.989Z,12.50
2019-05-10T19:19:16.442Z,11.53
2019-05-10T19:21:43.195Z,15.60
2019-05-10T19:24:09.987Z,14.07
2019-05-10T19:26:37.018Z,15.55
2019-05-10T19:29:05.237Z,15.25
2019-05-10T19:31:38.219Z,12.13
2019-05-10T19:37:00.428Z,13.38
2019-05-10T19:39:28.652Z,19.65
2019-05-10T19:42:03.074Z,11.70
2019-05-10T19:44:23.913Z,14.70
2019-05-10T19:46:50.564Z,16.12
2019-05-10T19:56:11.075Z,16.48
2019-05-10T19:58:37.945Z,19.40
2019-05-10T20:01:04.767Z,18.35
2019-05-10T20:03:32.013Z,16.77
2019-05-10T20:05:58.870Z,19.02
2019-05-10T20:08:25.426Z,20.70
2019-05-10T20:10:52.108Z,21.30
2019-05-10T20:13:19.045Z,17.80
2019-05-10T20:15:45.608Z,19.05
2019-05-10T20:18:12.390Z,16.62
2019-05-10T20:20:39.090Z,18.85
2019-05-10T20:23:05.625Z,18.12
2019-05-10T20:25:32.236Z,20.70
2019-05-10T20:28:10.206Z,13.47
2019-05-10T20:53:16.164Z,26.15
2019-05-10T20:55:43.076Z,24.70
2019-05-10T20:58:30.335Z,25.52
2019-05-10T21:00:57.202Z,24.92
2019-05-10T21:03:23.885Z,29.65
2019-05-10T21:05:50.703Z,26.82
2019-05-10T21:08:17.642Z,30.50
2019-05-10T21:10:44.351Z,31.95
2019-05-10T21:16:10.205Z,25.17
2019-05-10T21:18:36.928Z,29.37
2019-05-10T21:21:03.690Z,31.25
2019-05-10T21:23:30.309Z,31.97
2019-05-10T21:25:56.967Z,29.67
2019-05-10T21:28:52.642Z,28.35
2019-05-10T21:31:19.319Z,27.70
2019-05-10T21:37:13.330Z,24.95
2019-05-10T21:40:00.699Z,24.45
2019-05-10T21:42:27.414Z,25.20
2019-05-10T21:44:54.215Z,26.62
2019-05-10T21:47:20.822Z,26.42
2019-05-10T21:52:30.731Z,28.75
2019-05-10T21:54:57.263Z,28.75
2019-05-10T21:57:24.046Z,23.83
2019-05-10T21:59:50.958Z,27.30
2019-05-10T22:02:17.887Z,30.95
2019-05-10T22:04:47.821Z,32.58
2019-05-10T22:07:13.061Z,27.55
2019-05-10T22:09:39.823Z,31.37
2019-05-10T22:12:07.128Z,32.63
2019-05-10T22:14:33.842Z,32.40
2019-05-10T22:17:01.331Z,33.73
2019-05-10T22:19:27.958Z,28.73
2019-05-10T22:21:55.436Z,36.03
2019-05-10T22:24:22.393Z,33.50
2019-05-10T22:26:49.368Z,28.10
2019-05-10T22:29:16.037Z,31.20
2019-05-10T22:31:42.644Z,29.75
2019-05-10T22:34:09.272Z,30.70
2019-05-10T22:36:35.893Z,36.35
2019-05-10T22:39:07.379Z,29.27
2019-05-10T22:41:33.572Z,30.05
2019-05-10T22:44:02.791Z,28.75
2019-05-10T22:46:29.573Z,27.90
2019-05-10T22:48:56.083Z,33.55
2019-05-10T22:51:22.774Z,33.00
2019-05-10T22:53:59.646Z,30.12
2019-05-10T22:56:17.785Z,31.75
2019-05-10T22:58:44.258Z,32.15
2019-05-10T23:01:11.047Z,35.20
2019-05-10T23:03:37.675Z,33.98
2019-05-10T23:06:04.458Z,31.82
2019-05-10T23:11:21.182Z,28.77
2019-05-10T23:13:47.752Z,34.77
2019-05-10T23:16:14.279Z,32.65
2019-05-10T23:18:40.754Z,33.25
2019-05-10T23:21:07.526Z,37.98
2019-05-10T23:23:34.161Z,31.33
2019-05-10T23:26:01.235Z,31.73
2019-05-10T23:28:27.663Z,36.58
2019-05-10T23:30:54.296Z,28.57
2019-05-10T23:33:20.855Z,27.67
2019-05-10T23:35:57.756Z,27.43
2019-05-10T23:38:24.291Z,28.90
2019-05-10T23:40:50.798Z,30.32
2019-05-10T23:43:17.387Z,25.95
2019-05-10T23:45:44.007Z,31.55
2019-05-10T23:48:10.900Z,29.92
2019-05-10T23:50:37.467Z,34.23
2019-05-10T23:53:04.156Z,30.45
2019-05-10T23:55:30.678Z,31.48
2019-05-10T23:57:57.137Z,25.40
